sensor_id;sensor_type;location;lat;lon;timestamp;temperature;humidity
70269;DHT22;58514;48.398;-4.274;2022-11-24T00:00:44;10.30;99.90
70269;DHT22;58514;48.398;-4.274;2022-11-24T00:03:10;10.30;99.90
70269;DHT22;58514;48.398;-4.274;2022-11-24T00:05:35;10.30;99.90
70269;DHT22;58514;48.398;-4.274;2022-11-24T00:08:02;10.30;99.90
70269;DHT22;58514;48.398;-4.274;2022-11-24T00:10:28;10.30;99.90
70269;DHT22;58514;48.398;-4.274;2022-11-24T00:12:54;10.30;99.90
70269;DHT22;58514;48.398;-4.274;2022-11-24T00:15:20;10.30;99.90
70269;DHT22;58514;48.398;-4.274;2022-11-24T00:17:45;10.30;99.90
70269;DHT22;58514;48.398;-4.274;2022-11-24T00:20:11;10.30;99.90
70269;DHT22;58514;48.398;-4.274;2022-11-24T00:22:36;10.30;99.90
70269;DHT22;58514;48.398;-4.274;2022-11-24T00:25:02;10.30;99.90
70269;DHT22;58514;48.398;-4.274;2022-11-24T00:27:27;10.30;99.90
70269;DHT22;58514;48.398;-4.274;2022-11-24T00:29:53;10.30;99.90
70269;DHT22;58514;48.398;-4.274;2022-11-24T00:32:19;10.40;99.90
70269;DHT22;58514;48.398;-4.274;2022-11-24T00:34:45;10.40;99.90
70269;DHT22;58514;48.398;-4.274;2022-11-24T00:37:10;10.30;99.90
70269;DHT22;58514;48.398;-4.274;2022-11-24T00:39:36;10.40;99.90
70269;DHT22;58514;48.398;-4.274;2022-11-24T00:42:01;10.40;99.90
70269;DHT22;58514;48.398;-4.274;2022-11-24T00:44:27;10.40;99.90
70269;DHT22;58514;48.398;-4.274;2022-11-24T00:46:53;10.30;99.90
70269;DHT22;58514;48.398;-4.274;2022-11-24T00:49:18;10.40;99.90
70269;DHT22;58514;48.398;-4.274;2022-11-24T00:51:44;10.40;99.90
70269;DHT22;58514;48.398;-4.274;2022-11-24T00:54:10;10.40;99.90
70269;DHT22;58514;48.398;-4.274;2022-11-24T00:56:35;10.40;99.90
70269;DHT22;58514;48.398;-4.274;2022-11-24T00:59:01;10.50;99.90
70269;DHT22;58514;48.398;-4.274;2022-11-24T01:01:27;10.50;99.90
70269;DHT22;58514;48.398;-4.274;2022-11-24T01:03:52;10.50;99.90
70269;DHT22;58514;48.398;-4.274;2022-11-24T01:06:23;10.50;99.90
70269;DHT22;58514;48.398;-4.274;2022-11-24T01:08:48;10.50;99.90
70269;DHT22;58514;48.398;-4.274;2022-11-24T01:11:16;10.50;99.90
70269;DHT22;58514;48.398;-4.274;2022-11-24T01:13:43;10.60;99.90
70269;DHT22;58514;48.398;-4.274;2022-11-24T01:16:13;10.60;99.90
70269;DHT22;58514;48.398;-4.274;2022-11-24T01:18:38;10.60;99.90
70269;DHT22;58514;48.398;-4.274;2022-11-24T01:21:04;10.60;99.90
70269;DHT22;58514;48.398;-4.274;2022-11-24T01:23:30;10.60;99.90
70269;DHT22;58514;48.398;-4.274;2022-11-24T01:25:56;10.60;99.90
70269;DHT22;58514;48.398;-4.274;2022-11-24T01:28:21;10.60;99.90
70269;DHT22;58514;48.398;-4.274;2022-11-24T01:30:55;10.60;99.90
70269;DHT22;58514;48.398;-4.274;2022-11-24T01:33:21;10.60;99.90
70269;DHT22;58514;48.398;-4.274;2022-11-24T01:35:46;10.60;99.90
70269;DHT22;58514;48.398;-4.274;2022-11-24T01:38:12;10.60;99.90
70269;DHT22;58514;48.398;-4.274;2022-11-24T01:40:37;10.60;99.90
70269;DHT22;58514;48.398;-4.274;2022-11-24T01:43:13;10.70;99.90
70269;DHT22;58514;48.398;-4.274;2022-11-24T01:45:39;10.70;99.90
70269;DHT22;58514;48.398;-4.274;2022-11-24T01:48:05;10.70;99.90
70269;DHT22;58514;48.398;-4.274;2022-11-24T01:50:32;10.70;99.90
70269;DHT22;58514;48.398;-4.274;2022-11-24T01:52:59;10.80;99.90
70269;DHT22;58514;48.398;-4.274;2022-11-24T01:55:26;10.80;99.90
70269;DHT22;58514;48.398;-4.274;2022-11-24T01:57:55;10.80;99.90
70269;DHT22;58514;48.398;-4.274;2022-11-24T02:00:22;10.80;99.90
70269;DHT22;58514;48.398;-4.274;2022-11-24T02:02:47;10.90;99.90
70269;DHT22;58514;48.398;-4.274;2022-11-24T02:05:16;10.90;99.90
70269;DHT22;58514;48.398;-4.274;2022-11-24T02:07:42;11.00;99.90
70269;DHT22;58514;48.398;-4.274;2022-11-24T02:10:09;10.90;99.90
70269;DHT22;58514;48.398;-4.274;2022-11-24T02:12:36;11.00;99.90
70269;DHT22;58514;48.398;-4.274;2022-11-24T02:15:03;11.00;99.90
70269;DHT22;58514;48.398;-4.274;2022-11-24T02:17:29;11.00;99.90
70269;DHT22;58514;48.398;-4.274;2022-11-24T02:19:58;11.00;99.90
70269;DHT22;58514;48.398;-4.274;2022-11-24T02:27:24;11.00;99.90
70269;DHT22;58514;48.398;-4.274;2022-11-24T02:29:50;11.00;99.90
70269;DHT22;58514;48.398;-4.274;2022-11-24T02:32:16;11.00;99.90
70269;DHT22;58514;48.398;-4.274;2022-11-24T02:34:42;11.00;99.90
70269;DHT22;58514;48.398;-4.274;2022-11-24T02:37:08;11.00;99.90
70269;DHT22;58514;48.398;-4.274;2022-11-24T02:39:34;11.00;99.90
70269;DHT22;58514;48.398;-4.274;2022-11-24T02:42:00;11.10;99.90
70269;DHT22;58514;48.398;-4.274;2022-11-24T02:44:28;11.10;99.90
70269;DHT22;58514;48.398;-4.274;2022-11-24T02:47:05;11.10;99.90
70269;DHT22;58514;48.398;-4.274;2022-11-24T02:49:31;11.10;99.90
70269;DHT22;58514;48.398;-4.274;2022-11-24T02:51:56;11.10;99.90
70269;DHT22;58514;48.398;-4.274;2022-11-24T02:54:22;11.10;99.90
70269;DHT22;58514;48.398;-4.274;2022-11-24T02:56:47;11.10;99.90
70269;DHT22;58514;48.398;-4.274;2022-11-24T02:59:13;11.10;99.90
70269;DHT22;58514;48.398;-4.274;2022-11-24T03:01:39;11.10;99.90
70269;DHT22;58514;48.398;-4.274;2022-11-24T03:04:04;11.10;99.90
70269;DHT22;58514;48.398;-4.274;2022-11-24T03:06:30;11.10;99.90
70269;DHT22;58514;48.398;-4.274;2022-11-24T03:08:55;11.20;99.90
70269;DHT22;58514;48.398;-4.274;2022-11-24T03:11:21;11.20;99.90
70269;DHT22;58514;48.398;-4.274;2022-11-24T03:13:46;11.20;99.90
70269;DHT22;58514;48.398;-4.274;2022-11-24T03:16:12;11.20;99.90
70269;DHT22;58514;48.398;-4.274;2022-11-24T03:18:37;11.10;99.90
70269;DHT22;58514;48.398;-4.274;2022-11-24T03:21:03;11.10;99.90
70269;DHT22;58514;48.398;-4.274;2022-11-24T03:23:29;11.20;99.90
70269;DHT22;58514;48.398;-4.274;2022-11-24T03:25:54;11.10;99.90
70269;DHT22;58514;48.398;-4.274;2022-11-24T03:28:20;11.10;99.90
70269;DHT22;58514;48.398;-4.274;2022-11-24T03:30:47;11.10;99.90
70269;DHT22;58514;48.398;-4.274;2022-11-24T03:33:12;11.10;99.90
70269;DHT22;58514;48.398;-4.274;2022-11-24T03:35:38;11.00;99.90
70269;DHT22;58514;48.398;-4.274;2022-11-24T03:38:03;11.10;99.90
70269;DHT22;58514;48.398;-4.274;2022-11-24T03:40:29;11.00;99.90
70269;DHT22;58514;48.398;-4.274;2022-11-24T03:42:54;11.10;99.90
70269;DHT22;58514;48.398;-4.274;2022-11-24T03:45:20;11.00;99.90
70269;DHT22;58514;48.398;-4.274;2022-11-24T03:47:48;11.00;99.90
70269;DHT22;58514;48.398;-4.274;2022-11-24T03:50:14;11.00;99.90
70269;DHT22;58514;48.398;-4.274;2022-11-24T03:52:39;11.00;99.90
70269;DHT22;58514;48.398;-4.274;2022-11-24T03:55:05;11.00;99.90
70269;DHT22;58514;48.398;-4.274;2022-11-24T03:57:31;11.00;99.90
70269;DHT22;58514;48.398;-4.274;2022-11-24T03:59:56;11.00;99.90
70269;DHT22;58514;48.398;-4.274;2022-11-24T04:02:22;11.10;99.90
70269;DHT22;58514;48.398;-4.274;2022-11-24T04:04:47;11.10;99.90
70269;DHT22;58514;48.398;-4.274;2022-11-24T04:07:15;11.10;99.90
70269;DHT22;58514;48.398;-4.274;2022-11-24T04:09:41;11.20;99.90
70269;DHT22;58514;48.398;-4.274;2022-11-24T04:12:07;11.20;99.90
70269;DHT22;58514;48.398;-4.274;2022-11-24T04:14:51;11.20;99.90
70269;DHT22;58514;48.398;-4.274;2022-11-24T04:17:17;11.20;99.90
70269;DHT22;58514;48.398;-4.274;2022-11-24T04:19:43;11.20;99.90
70269;DHT22;58514;48.398;-4.274;2022-11-24T04:22:08;11.30;99.90
70269;DHT22;58514;48.398;-4.274;2022-11-24T04:24:34;11.20;99.90
70269;DHT22;58514;48.398;-4.274;2022-11-24T04:26:59;11.20;99.90
70269;DHT22;58514;48.398;-4.274;2022-11-24T04:29:25;11.20;99.90
70269;DHT22;58514;48.398;-4.274;2022-11-24T04:31:50;11.20;99.90
70269;DHT22;58514;48.398;-4.274;2022-11-24T04:34:16;11.20;99.90
70269;DHT22;58514;48.398;-4.274;2022-11-24T04:36:41;11.20;99.90
70269;DHT22;58514;48.398;-4.274;2022-11-24T04:39:07;11.10;99.90
70269;DHT22;58514;48.398;-4.274;2022-11-24T04:41:33;11.10;99.90
70269;DHT22;58514;48.398;-4.274;2022-11-24T04:43:58;11.00;99.90
70269;DHT22;58514;48.398;-4.274;2022-11-24T04:46:24;11.00;99.90
70269;DHT22;58514;48.398;-4.274;2022-11-24T04:48:49;11.00;99.90
70269;DHT22;58514;48.398;-4.274;2022-11-24T04:51:15;10.90;99.90
70269;DHT22;58514;48.398;-4.274;2022-11-24T04:53:40;10.90;99.90
70269;DHT22;58514;48.398;-4.274;2022-11-24T04:56:06;10.90;99.90
70269;DHT22;58514;48.398;-4.274;2022-11-24T04:58:32;10.80;99.90
70269;DHT22;58514;48.398;-4.274;2022-11-24T05:00:57;10.80;99.90
70269;DHT22;58514;48.398;-4.274;2022-11-24T05:03:23;10.80;99.90
70269;DHT22;58514;48.398;-4.274;2022-11-24T05:05:48;10.80;99.90
70269;DHT22;58514;48.398;-4.274;2022-11-24T05:08:14;10.80;99.90
70269;DHT22;58514;48.398;-4.274;2022-11-24T05:10:39;10.80;99.90
70269;DHT22;58514;48.398;-4.274;2022-11-24T05:13:06;10.90;99.90
70269;DHT22;58514;48.398;-4.274;2022-11-24T05:15:33;10.90;99.90
70269;DHT22;58514;48.398;-4.274;2022-11-24T05:17:58;10.90;99.90
70269;DHT22;58514;48.398;-4.274;2022-11-24T05:20:24;10.90;99.90
70269;DHT22;58514;48.398;-4.274;2022-11-24T05:22:50;10.90;99.90
70269;DHT22;58514;48.398;-4.274;2022-11-24T05:25:15;10.90;99.90
70269;DHT22;58514;48.398;-4.274;2022-11-24T05:27:41;10.90;99.90
70269;DHT22;58514;48.398;-4.274;2022-11-24T05:30:07;10.90;99.90
70269;DHT22;58514;48.398;-4.274;2022-11-24T05:32:33;10.90;99.90
70269;DHT22;58514;48.398;-4.274;2022-11-24T05:34:59;10.90;99.90
70269;DHT22;58514;48.398;-4.274;2022-11-24T05:37:29;10.90;99.90
70269;DHT22;58514;48.398;-4.274;2022-11-24T05:39:55;10.90;99.90
70269;DHT22;58514;48.398;-4.274;2022-11-24T05:42:20;10.90;99.90
70269;DHT22;58514;48.398;-4.274;2022-11-24T05:45:05;10.90;99.90
70269;DHT22;58514;48.398;-4.274;2022-11-24T05:47:31;10.80;99.90
70269;DHT22;58514;48.398;-4.274;2022-11-24T05:49:56;10.90;99.90
70269;DHT22;58514;48.398;-4.274;2022-11-24T05:52:22;10.90;99.90
70269;DHT22;58514;48.398;-4.274;2022-11-24T05:54:47;10.90;99.90
70269;DHT22;58514;48.398;-4.274;2022-11-24T05:57:13;10.90;99.90
70269;DHT22;58514;48.398;-4.274;2022-11-24T05:59:38;11.00;99.90
70269;DHT22;58514;48.398;-4.274;2022-11-24T06:02:04;11.00;99.90
70269;DHT22;58514;48.398;-4.274;2022-11-24T06:04:30;11.10;99.90
70269;DHT22;58514;48.398;-4.274;2022-11-24T06:06:55;11.10;99.90
70269;DHT22;58514;48.398;-4.274;2022-11-24T06:09:21;11.10;99.90
70269;DHT22;58514;48.398;-4.274;2022-11-24T06:11:47;11.10;99.90
70269;DHT22;58514;48.398;-4.274;2022-11-24T06:14:12;11.10;99.90
70269;DHT22;58514;48.398;-4.274;2022-11-24T06:16:38;11.10;99.90
70269;DHT22;58514;48.398;-4.274;2022-11-24T06:19:04;11.20;99.90
70269;DHT22;58514;48.398;-4.274;2022-11-24T06:21:29;11.10;99.90
70269;DHT22;58514;48.398;-4.274;2022-11-24T06:23:56;11.10;99.90
70269;DHT22;58514;48.398;-4.274;2022-11-24T06:26:21;11.10;99.90
70269;DHT22;58514;48.398;-4.274;2022-11-24T06:28:47;11.20;99.90
70269;DHT22;58514;48.398;-4.274;2022-11-24T06:31:12;11.20;99.90
70269;DHT22;58514;48.398;-4.274;2022-11-24T06:33:38;11.20;99.90
70269;DHT22;58514;48.398;-4.274;2022-11-24T06:36:05;11.20;99.90
70269;DHT22;58514;48.398;-4.274;2022-11-24T06:38:31;11.20;99.90
70269;DHT22;58514;48.398;-4.274;2022-11-24T06:41:00;11.20;99.90
70269;DHT22;58514;48.398;-4.274;2022-11-24T06:43:26;11.20;99.90
70269;DHT22;58514;48.398;-4.274;2022-11-24T06:45:52;11.20;99.90
70269;DHT22;58514;48.398;-4.274;2022-11-24T06:48:18;11.20;99.90
70269;DHT22;58514;48.398;-4.274;2022-11-24T06:50:43;11.20;99.90
70269;DHT22;58514;48.398;-4.274;2022-11-24T06:53:09;11.20;99.90
70269;DHT22;58514;48.398;-4.274;2022-11-24T06:55:37;11.20;99.90
70269;DHT22;58514;48.398;-4.274;2022-11-24T06:58:02;11.30;99.90
70269;DHT22;58514;48.398;-4.274;2022-11-24T07:00:28;11.20;99.90
70269;DHT22;58514;48.398;-4.274;2022-11-24T07:02:59;11.20;99.90
70269;DHT22;58514;48.398;-4.274;2022-11-24T07:05:25;11.30;99.90
70269;DHT22;58514;48.398;-4.274;2022-11-24T07:07:51;11.30;99.90
70269;DHT22;58514;48.398;-4.274;2022-11-24T07:10:16;11.30;99.90
70269;DHT22;58514;48.398;-4.274;2022-11-24T07:12:42;11.30;99.90
70269;DHT22;58514;48.398;-4.274;2022-11-24T07:15:07;11.30;99.90
70269;DHT22;58514;48.398;-4.274;2022-11-24T07:17:36;11.40;99.90
70269;DHT22;58514;48.398;-4.274;2022-11-24T07:20:03;11.40;99.90
70269;DHT22;58514;48.398;-4.274;2022-11-24T07:22:28;11.40;99.90
70269;DHT22;58514;48.398;-4.274;2022-11-24T07:24:54;11.40;99.90
70269;DHT22;58514;48.398;-4.274;2022-11-24T07:27:19;11.50;99.90
70269;DHT22;58514;48.398;-4.274;2022-11-24T07:29:45;11.50;99.90
70269;DHT22;58514;48.398;-4.274;2022-11-24T07:32:10;11.50;99.90
70269;DHT22;58514;48.398;-4.274;2022-11-24T07:34:36;11.60;99.90
70269;DHT22;58514;48.398;-4.274;2022-11-24T07:37:02;11.60;99.90
70269;DHT22;58514;48.398;-4.274;2022-11-24T07:39:27;11.60;99.90
70269;DHT22;58514;48.398;-4.274;2022-11-24T07:41:53;11.60;99.90
70269;DHT22;58514;48.398;-4.274;2022-11-24T07:44:18;11.60;99.90
70269;DHT22;58514;48.398;-4.274;2022-11-24T07:46:44;11.60;99.90
70269;DHT22;58514;48.398;-4.274;2022-11-24T07:49:09;11.60;99.90
70269;DHT22;58514;48.398;-4.274;2022-11-24T07:51:35;11.70;99.90
70269;DHT22;58514;48.398;-4.274;2022-11-24T07:54:01;11.70;99.90
70269;DHT22;58514;48.398;-4.274;2022-11-24T07:56:26;11.70;99.90
70269;DHT22;58514;48.398;-4.274;2022-11-24T07:58:52;11.70;99.90
70269;DHT22;58514;48.398;-4.274;2022-11-24T08:01:18;11.70;99.90
70269;DHT22;58514;48.398;-4.274;2022-11-24T08:03:44;11.80;99.90
70269;DHT22;58514;48.398;-4.274;2022-11-24T08:06:10;11.80;99.90
70269;DHT22;58514;48.398;-4.274;2022-11-24T08:08:36;11.80;99.90
70269;DHT22;58514;48.398;-4.274;2022-11-24T08:11:05;11.80;99.90
70269;DHT22;58514;48.398;-4.274;2022-11-24T08:13:31;11.80;99.90
70269;DHT22;58514;48.398;-4.274;2022-11-24T08:15:56;11.80;99.90
70269;DHT22;58514;48.398;-4.274;2022-11-24T08:18:22;11.90;99.90
70269;DHT22;58514;48.398;-4.274;2022-11-24T08:20:49;11.90;99.90
70269;DHT22;58514;48.398;-4.274;2022-11-24T08:23:14;12.00;99.90
70269;DHT22;58514;48.398;-4.274;2022-11-24T08:25:40;12.00;99.90
70269;DHT22;58514;48.398;-4.274;2022-11-24T08:28:05;12.00;99.90
70269;DHT22;58514;48.398;-4.274;2022-11-24T08:30:31;12.10;99.90
70269;DHT22;58514;48.398;-4.274;2022-11-24T08:32:59;12.00;99.90
70269;DHT22;58514;48.398;-4.274;2022-11-24T08:35:25;12.10;99.90
70269;DHT22;58514;48.398;-4.274;2022-11-24T08:37:51;12.10;99.90
70269;DHT22;58514;48.398;-4.274;2022-11-24T08:40:17;12.10;99.90
70269;DHT22;58514;48.398;-4.274;2022-11-24T08:42:42;12.20;99.90
70269;DHT22;58514;48.398;-4.274;2022-11-24T08:45:08;12.20;99.90
70269;DHT22;58514;48.398;-4.274;2022-11-24T08:47:34;12.20;99.90
70269;DHT22;58514;48.398;-4.274;2022-11-24T08:50:00;12.30;99.90
70269;DHT22;58514;48.398;-4.274;2022-11-24T08:52:25;12.30;99.90
70269;DHT22;58514;48.398;-4.274;2022-11-24T08:54:51;12.30;99.90
70269;DHT22;58514;48.398;-4.274;2022-11-24T08:57:16;12.30;99.90
70269;DHT22;58514;48.398;-4.274;2022-11-24T08:59:42;12.40;99.90
70269;DHT22;58514;48.398;-4.274;2022-11-24T09:02:11;12.30;99.90
70269;DHT22;58514;48.398;-4.274;2022-11-24T09:04:37;12.30;99.90
70269;DHT22;58514;48.398;-4.274;2022-11-24T09:07:02;12.40;99.90
70269;DHT22;58514;48.398;-4.274;2022-11-24T09:09:28;12.40;99.90
70269;DHT22;58514;48.398;-4.274;2022-11-24T09:11:53;12.40;99.90
70269;DHT22;58514;48.398;-4.274;2022-11-24T09:14:19;12.40;99.90
70269;DHT22;58514;48.398;-4.274;2022-11-24T09:16:44;12.50;99.90
70269;DHT22;58514;48.398;-4.274;2022-11-24T09:19:10;12.40;99.90
70269;DHT22;58514;48.398;-4.274;2022-11-24T09:21:36;12.50;99.90
70269;DHT22;58514;48.398;-4.274;2022-11-24T09:24:08;12.50;99.90
70269;DHT22;58514;48.398;-4.274;2022-11-24T09:26:34;12.50;99.90
70269;DHT22;58514;48.398;-4.274;2022-11-24T09:29:01;12.50;99.90
70269;DHT22;58514;48.398;-4.274;2022-11-24T09:31:28;12.60;99.90
70269;DHT22;58514;48.398;-4.274;2022-11-24T09:33:54;12.60;99.90
70269;DHT22;58514;48.398;-4.274;2022-11-24T09:36:20;12.60;99.90
70269;DHT22;58514;48.398;-4.274;2022-11-24T09:38:45;12.60;99.90
70269;DHT22;58514;48.398;-4.274;2022-11-24T09:43:40;12.70;99.90
70269;DHT22;58514;48.398;-4.274;2022-11-24T09:46:19;12.70;99.90
70269;DHT22;58514;48.398;-4.274;2022-11-24T09:48:48;12.70;99.90
70269;DHT22;58514;48.398;-4.274;2022-11-24T09:51:15;12.70;99.90
70269;DHT22;58514;48.398;-4.274;2022-11-24T09:53:42;12.70;99.90
70269;DHT22;58514;48.398;-4.274;2022-11-24T09:56:19;12.70;99.90
70269;DHT22;58514;48.398;-4.274;2022-11-24T09:58:48;12.70;99.90
70269;DHT22;58514;48.398;-4.274;2022-11-24T10:01:19;12.70;99.90
70269;DHT22;58514;48.398;-4.274;2022-11-24T10:03:52;12.70;99.90
70269;DHT22;58514;48.398;-4.274;2022-11-24T10:11:23;12.70;99.90
70269;DHT22;58514;48.398;-4.274;2022-11-24T10:16:46;12.80;99.90
70269;DHT22;58514;48.398;-4.274;2022-11-24T10:21:58;12.80;99.90
70269;DHT22;58514;48.398;-4.274;2022-11-24T10:29:40;12.80;99.90
70269;DHT22;58514;48.398;-4.274;2022-11-24T10:32:10;12.80;99.90
70269;DHT22;58514;48.398;-4.274;2022-11-24T10:34:39;12.80;99.90
70269;DHT22;58514;48.398;-4.274;2022-11-24T10:44:42;12.90;99.90
70269;DHT22;58514;48.398;-4.274;2022-11-24T10:47:16;12.90;99.90
70269;DHT22;58514;48.398;-4.274;2022-11-24T10:49:41;12.90;99.90
70269;DHT22;58514;48.398;-4.274;2022-11-24T10:52:13;13.00;99.90
70269;DHT22;58514;48.398;-4.274;2022-11-24T10:54:52;13.00;99.90
70269;DHT22;58514;48.398;-4.274;2022-11-24T10:57:28;13.00;99.90
70269;DHT22;58514;48.398;-4.274;2022-11-24T10:59:54;13.10;99.90
70269;DHT22;58514;48.398;-4.274;2022-11-24T11:02:31;13.00;99.90
70269;DHT22;58514;48.398;-4.274;2022-11-24T11:04:57;13.00;99.90
70269;DHT22;58514;48.398;-4.274;2022-11-24T11:07:24;13.00;99.90
70269;DHT22;58514;48.398;-4.274;2022-11-24T11:09:49;12.90;99.90
70269;DHT22;58514;48.398;-4.274;2022-11-24T11:12:22;12.90;99.90
70269;DHT22;58514;48.398;-4.274;2022-11-24T11:14:48;12.80;99.90
70269;DHT22;58514;48.398;-4.274;2022-11-24T11:20:04;12.80;99.90
70269;DHT22;58514;48.398;-4.274;2022-11-24T11:22:31;12.80;99.90
70269;DHT22;58514;48.398;-4.274;2022-11-24T11:27:35;12.80;99.90
70269;DHT22;58514;48.398;-4.274;2022-11-24T11:30:17;12.70;99.90
70269;DHT22;58514;48.398;-4.274;2022-11-24T11:32:51;12.70;99.90
70269;DHT22;58514;48.398;-4.274;2022-11-24T11:35:17;12.70;99.90
70269;DHT22;58514;48.398;-4.274;2022-11-24T11:37:43;12.60;99.90
70269;DHT22;58514;48.398;-4.274;2022-11-24T11:40:21;12.60;99.90
70269;DHT22;58514;48.398;-4.274;2022-11-24T11:42:49;12.60;99.90
70269;DHT22;58514;48.398;-4.274;2022-11-24T11:45:17;12.50;99.90
70269;DHT22;58514;48.398;-4.274;2022-11-24T11:50:11;12.40;99.90
70269;DHT22;58514;48.398;-4.274;2022-11-24T12:00:16;12.40;99.90
70269;DHT22;58514;48.398;-4.274;2022-11-24T12:05:10;12.30;99.90
70269;DHT22;58514;48.398;-4.274;2022-11-24T12:13:15;12.40;99.90
70269;DHT22;58514;48.398;-4.274;2022-11-24T12:15:45;12.50;99.90
70269;DHT22;58514;48.398;-4.274;2022-11-24T12:18:19;12.50;99.90
70269;DHT22;58514;48.398;-4.274;2022-11-24T12:23:59;12.60;99.90
70269;DHT22;58514;48.398;-4.274;2022-11-24T12:26:44;12.60;99.90
70269;DHT22;58514;48.398;-4.274;2022-11-24T12:36:54;12.70;99.90
70269;DHT22;58514;48.398;-4.274;2022-11-24T12:39:25;12.60;99.90
70269;DHT22;58514;48.398;-4.274;2022-11-24T12:42:12;12.60;99.90
70269;DHT22;58514;48.398;-4.274;2022-11-24T12:44:43;12.60;99.90
70269;DHT22;58514;48.398;-4.274;2022-11-24T12:47:14;12.60;99.90
70269;DHT22;58514;48.398;-4.274;2022-11-24T12:54:45;12.60;99.90
70269;DHT22;58514;48.398;-4.274;2022-11-24T12:59:41;12.70;99.90
70269;DHT22;58514;48.398;-4.274;2022-11-24T13:04:53;12.70;99.90
70269;DHT22;58514;48.398;-4.274;2022-11-24T13:07:21;12.80;99.90
70269;DHT22;58514;48.398;-4.274;2022-11-24T13:15:17;12.60;99.90
70269;DHT22;58514;48.398;-4.274;2022-11-24T13:17:43;12.50;99.90
70269;DHT22;58514;48.398;-4.274;2022-11-24T13:20:51;12.40;99.90
70269;DHT22;58514;48.398;-4.274;2022-11-24T13:22:58;12.40;99.90
70269;DHT22;58514;48.398;-4.274;2022-11-24T13:25:25;12.30;99.90
70269;DHT22;58514;48.398;-4.274;2022-11-24T13:27:59;12.30;99.90
70269;DHT22;58514;48.398;-4.274;2022-11-24T13:35:34;12.30;99.90
70269;DHT22;58514;48.398;-4.274;2022-11-24T13:38:00;12.30;99.90
70269;DHT22;58514;48.398;-4.274;2022-11-24T13:40:35;12.30;99.90
70269;DHT22;58514;48.398;-4.274;2022-11-24T13:53:28;12.50;99.90
70269;DHT22;58514;48.398;-4.274;2022-11-24T13:56:04;12.50;99.90
70269;DHT22;58514;48.398;-4.274;2022-11-24T13:58:41;12.50;99.90
70269;DHT22;58514;48.398;-4.274;2022-11-24T14:06:05;12.40;99.90
70269;DHT22;58514;48.398;-4.274;2022-11-24T14:08:34;12.50;99.90
70269;DHT22;58514;48.398;-4.274;2022-11-24T14:11:01;12.50;99.90
70269;DHT22;58514;48.398;-4.274;2022-11-24T14:13:28;12.50;99.90
70269;DHT22;58514;48.398;-4.274;2022-11-24T14:16:36;12.60;99.90
70269;DHT22;58514;48.398;-4.274;2022-11-24T14:18:47;12.50;99.90
70269;DHT22;58514;48.398;-4.274;2022-11-24T14:24:07;12.70;99.90
70269;DHT22;58514;48.398;-4.274;2022-11-24T14:26:34;12.80;99.90
70269;DHT22;58514;48.398;-4.274;2022-11-24T14:29:04;12.80;99.90
70269;DHT22;58514;48.398;-4.274;2022-11-24T14:31:30;12.90;99.90
70269;DHT22;58514;48.398;-4.274;2022-11-24T14:34:13;12.90;99.90
70269;DHT22;58514;48.398;-4.274;2022-11-24T14:36:39;12.90;99.90
70269;DHT22;58514;48.398;-4.274;2022-11-24T14:39:05;12.90;99.90
70269;DHT22;58514;48.398;-4.274;2022-11-24T14:41:31;12.90;99.90
70269;DHT22;58514;48.398;-4.274;2022-11-24T14:46:34;12.80;99.90
70269;DHT22;58514;48.398;-4.274;2022-11-24T14:49:00;12.80;99.90
70269;DHT22;58514;48.398;-4.274;2022-11-24T14:51:31;12.70;99.90
70269;DHT22;58514;48.398;-4.274;2022-11-24T14:54:05;12.70;99.90
70269;DHT22;58514;48.398;-4.274;2022-11-24T14:58:57;12.70;99.90
70269;DHT22;58514;48.398;-4.274;2022-11-24T15:06:35;12.40;99.90
70269;DHT22;58514;48.398;-4.274;2022-11-24T15:09:01;12.10;99.90
70269;DHT22;58514;48.398;-4.274;2022-11-24T15:11:30;12.00;99.90
70269;DHT22;58514;48.398;-4.274;2022-11-24T15:13:56;11.90;99.90
70269;DHT22;58514;48.398;-4.274;2022-11-24T15:16:23;11.80;99.90
70269;DHT22;58514;48.398;-4.274;2022-11-24T15:19:11;11.70;99.90
70269;DHT22;58514;48.398;-4.274;2022-11-24T15:21:38;11.60;99.90
70269;DHT22;58514;48.398;-4.274;2022-11-24T15:24:17;11.60;99.90
70269;DHT22;58514;48.398;-4.274;2022-11-24T15:26:43;11.50;99.90
70269;DHT22;58514;48.398;-4.274;2022-11-24T15:29:09;11.50;99.90
70269;DHT22;58514;48.398;-4.274;2022-11-24T15:31:35;11.50;99.90
70269;DHT22;58514;48.398;-4.274;2022-11-24T15:34:01;11.50;99.90
70269;DHT22;58514;48.398;-4.274;2022-11-24T15:36:26;11.50;99.90
70269;DHT22;58514;48.398;-4.274;2022-11-24T15:38:52;11.50;99.90
70269;DHT22;58514;48.398;-4.274;2022-11-24T15:41:18;11.50;99.90
70269;DHT22;58514;48.398;-4.274;2022-11-24T15:43:44;11.40;99.90
70269;DHT22;58514;48.398;-4.274;2022-11-24T15:46:10;11.40;99.90
70269;DHT22;58514;48.398;-4.274;2022-11-24T15:48:36;11.40;99.90
70269;DHT22;58514;48.398;-4.274;2022-11-24T15:51:02;11.40;99.90
70269;DHT22;58514;48.398;-4.274;2022-11-24T15:53:29;11.40;99.90
70269;DHT22;58514;48.398;-4.274;2022-11-24T15:55:56;11.40;99.90
70269;DHT22;58514;48.398;-4.274;2022-11-24T15:58:22;11.40;99.90
70269;DHT22;58514;48.398;-4.274;2022-11-24T16:00:47;11.30;99.90
70269;DHT22;58514;48.398;-4.274;2022-11-24T16:03:15;11.30;99.90
70269;DHT22;58514;48.398;-4.274;2022-11-24T16:05:40;11.30;99.90
70269;DHT22;58514;48.398;-4.274;2022-11-24T16:08:15;11.20;99.90
70269;DHT22;58514;48.398;-4.274;2022-11-24T16:10:41;11.20;99.90
70269;DHT22;58514;48.398;-4.274;2022-11-24T16:13:07;11.20;99.90
70269;DHT22;58514;48.398;-4.274;2022-11-24T16:15:33;11.20;99.90
70269;DHT22;58514;48.398;-4.274;2022-11-24T16:17:59;11.20;99.90
70269;DHT22;58514;48.398;-4.274;2022-11-24T16:20:24;11.20;99.90
70269;DHT22;58514;48.398;-4.274;2022-11-24T16:22:50;11.20;99.90
70269;DHT22;58514;48.398;-4.274;2022-11-24T16:25:16;11.20;99.90
70269;DHT22;58514;48.398;-4.274;2022-11-24T16:27:41;11.20;99.90
70269;DHT22;58514;48.398;-4.274;2022-11-24T16:30:07;11.20;99.90
70269;DHT22;58514;48.398;-4.274;2022-11-24T16:32:33;11.20;99.90
70269;DHT22;58514;48.398;-4.274;2022-11-24T16:34:59;11.10;99.90
70269;DHT22;58514;48.398;-4.274;2022-11-24T16:37:24;11.10;99.90
70269;DHT22;58514;48.398;-4.274;2022-11-24T16:39:50;11.00;99.90
70269;DHT22;58514;48.398;-4.274;2022-11-24T16:42:16;11.00;99.90
70269;DHT22;58514;48.398;-4.274;2022-11-24T16:44:41;11.00;99.90
70269;DHT22;58514;48.398;-4.274;2022-11-24T16:47:07;10.90;99.90
70269;DHT22;58514;48.398;-4.274;2022-11-24T16:49:32;10.80;99.90
70269;DHT22;58514;48.398;-4.274;2022-11-24T16:51:58;10.80;99.90
70269;DHT22;58514;48.398;-4.274;2022-11-24T16:54:24;10.70;99.90
70269;DHT22;58514;48.398;-4.274;2022-11-24T16:56:50;10.70;99.90
70269;DHT22;58514;48.398;-4.274;2022-11-24T16:59:15;10.70;99.90
70269;DHT22;58514;48.398;-4.274;2022-11-24T17:01:41;10.60;99.90
70269;DHT22;58514;48.398;-4.274;2022-11-24T17:04:10;10.60;99.90
70269;DHT22;58514;48.398;-4.274;2022-11-24T17:06:36;10.60;99.90
70269;DHT22;58514;48.398;-4.274;2022-11-24T17:09:02;10.60;99.90